Time;durP1;ratioP1;P1;durP2;ratioP2;P2;SDS_P1;SDS_P2;PMS_P1;PMS_P2;Temp;Humidity;BMP_temperature;BMP_pressure;BME280_temperature;BME280_humidity;BME280_pressure;Samples;Min_cycle;Max_cycle;Signal;HPM_P1;HPM_P2
2021/01/01 09:36:46;;;;;;;11.75;5.70;;;;;;;3.06;100.00;100876.53;4819835;29;20055;-94
2021/01/01 09:39:12;;;;;;;12.60;6.43;;;;;;;3.08;100.00;100879.13;4800788;29;20043;-94
2021/01/01 09:41:39;;;;;;;10.00;5.18;;;;;;;3.32;100.00;100899.69;4803562;29;20031;-93
2021/01/01 09:44:09;;;;;;;15.45;6.63;;;;;;;3.31;100.00;100904.91;4806187;29;20031;-93
2021/01/01 09:46:41;;;;;;;14.48;6.68;;;;;;;3.14;100.00;100875.56;4793290;29;20114;-89
2021/01/01 09:51:43;;;;;;;10.35;6.22;;;;;;;3.32;100.00;100896.22;4820754;29;20511;-89
2021/01/01 09:54:30;;;;;;;14.50;7.50;;;;;;;3.47;100.00;100908.22;4782353;29;20041;-88
2021/01/01 09:57:23;;;;;;;13.45;5.65;;;;;;;3.43;100.00;100894.31;4734393;30;20067;-91
2021/01/01 10:00:14;;;;;;;8.63;5.07;;;;;;;3.55;100.00;100920.25;4742007;30;20191;-89
2021/01/01 10:03:01;;;;;;;17.48;6.53;;;;;;;3.57;100.00;100908.06;4755535;30;20058;-88
2021/01/01 10:06:04;;;;;;;12.68;6.60;;;;;;;3.69;100.00;100921.81;4731482;30;20424;-87
2021/01/01 10:08:41;;;;;;;8.98;5.53;;;;;;;3.63;100.00;100909.72;4672740;30;20045;-90
2021/01/01 10:11:40;;;;;;;12.52;6.25;;;;;;;3.73;100.00;100926.97;4668396;30;20149;-87
2021/01/01 10:14:50;;;;;;;11.00;6.50;;;;;;;3.63;100.00;100909.72;4688727;30;20030;-91
2021/01/01 10:17:37;;;;;;;14.70;7.03;;;;;;;3.57;100.00;100923.72;4658166;30;20190;-90
2021/01/01 10:20:16;;;;;;;18.88;7.40;;;;;;;3.55;100.00;100908.94;4645995;30;20173;-88
2021/01/01 10:23:24;;;;;;;;;;;;;;;3.64;100.00;100927.97;4652528;30;20054;-89
2021/01/01 14:19:47;;;;;;;10.32;4.72;;;;;;;4.97;100.00;100905.59;4783185;27;20035;-86
2021/01/01 14:22:12;;;;;;;14.93;4.47;;;;;;;5.10;100.00;100921.03;4787093;29;20023;-89
2021/01/01 14:24:44;;;;;;;10.68;5.70;;;;;;;5.05;100.00;100924.66;4784623;29;20039;-90
2021/01/01 14:55:57;;;;;;;10.13;4.37;;;;;;;4.48;100.00;100922.28;5471453;24;20042;-89
2021/01/01 14:58:55;;;;;;;7.80;3.83;;;;;;;4.47;100.00;100931.00;4824695;29;20030;-88
2021/01/01 15:01:30;;;;;;;7.35;3.55;;;;;;;4.51;100.00;100951.84;4823832;29;20031;-91
2021/01/01 15:04:44;;;;;;;6.68;3.35;;;;;;;4.45;100.00;100951.09;4788671;29;20076;-90
2021/01/01 15:08:16;;;;;;;5.80;3.25;;;;;;;4.35;100.00;100950.41;4731785;30;20044;-89
2021/01/01 15:11:46;;;;;;;9.05;3.60;;;;;;;4.29;100.00;100964.44;4645942;30;20054;-92
2021/01/01 15:14:12;;;;;;;7.35;3.72;;;;;;;4.20;100.00;100948.91;4643181;30;20075;-89
2021/01/01 15:16:39;;;;;;;5.18;3.28;;;;;;;4.19;100.00;100959.41;4627003;30;20083;-90
2021/01/01 15:19:05;;;;;;;7.25;3.63;;;;;;;4.19;100.00;100967.25;4608011;30;20068;-90
2021/01/01 15:21:32;;;;;;;8.50;2.90;;;;;;;4.12;100.00;100953.41;4644535;30;20110;-90
2021/01/01 15:23:58;;;;;;;9.52;4.00;;;;;;;4.15;100.00;100963.81;4642217;30;20111;-91
2021/01/01 15:26:34;;;;;;;5.00;3.67;;;;;;;4.08;100.00;100963.06;4628758;30;20094;-90
2021/01/01 15:29:23;;;;;;;5.47;3.57;;;;;;;4.03;100.00;100977.09;4642177;30;20071;-90
2021/01/01 15:31:51;;;;;;;8.30;3.65;;;;;;;3.97;100.00;100953.66;4646528;30;20074;-92
2021/01/01 15:34:17;;;;;;;10.68;3.80;;;;;;;3.94;100.00;100962.38;4634994;30;20058;-91
2021/01/01 15:36:42;;;;;;;10.38;3.40;;;;;;;3.96;100.00;100971.06;4631876;30;20035;-90
2021/01/01 15:39:35;;;;;;;7.22;3.70;;;;;;;4.01;100.00;100969.25;4670459;30;20058;-88
2021/01/01 15:42:16;;;;;;;7.10;3.53;;;;;;;4.00;100.00;100979.75;4634326;30;20051;-90
2021/01/01 15:44:42;;;;;;;9.23;3.60;;;;;;;3.95;100.00;100968.47;4640056;31;20070;-90
2021/01/01 15:47:08;;;;;;;9.20;4.72;;;;;;;3.92;100.00;100984.25;4632556;30;20044;-88
2021/01/01 15:50:16;;;;;;;8.80;3.92;;;;;;;3.92;100.00;100979.00;4642387;30;20195;-91
2021/01/01 15:52:54;;;;;;;9.57;4.20;;;;;;;3.88;100.00;100978.19;4619526;30;20063;-90
2021/01/01 15:55:33;;;;;;;7.03;3.75;;;;;;;3.90;100.00;100976.41;4616705;31;20078;-88
2021/01/01 15:58:21;;;;;;;9.00;3.85;;;;;;;3.89;100.00;100986.00;4559874;31;20060;-91
2021/01/01 16:00:53;;;;;;;11.13;4.38;;;;;;;3.90;100.00;100979.00;4555886;31;20057;-91
2021/01/01 16:04:16;;;;;;;9.35;4.55;;;;;;;3.91;100.00;100988.56;4579212;31;20100;-90
2021/01/01 16:20:32;;;;;;;9.43;4.43;;;;;;;4.00;100.00;101001.53;4858816;29;20353;-88
2021/01/01 16:23:00;;;;;;;7.63;4.40;;;;;;;4.03;100.00;101005.84;4846381;29;20113;-89
2021/01/01 16:25:25;;;;;;;10.25;5.72;;;;;;;3.95;100.00;100992.88;4840075;29;20019;-87
2021/01/01 16:27:50;;;;;;;13.45;5.60;;;;;;;4.03;100.00;101003.25;4839860;29;20028;-88
2021/01/01 16:30:16;;;;;;;13.30;6.25;;;;;;;3.94;100.00;100985.06;4859580;29;20019;-88
2021/01/01 16:32:42;;;;;;;14.25;7.85;;;;;;;3.98;100.00;101005.06;4843585;29;20090;-91
2021/01/01 16:35:09;;;;;;;13.70;6.32;;;;;;;4.00;100.00;101000.66;4861166;29;20082;-87
2021/01/01 16:37:37;;;;;;;17.05;6.93;;;;;;;4.00;100.00;101005.88;4838701;29;20042;-91
2021/01/01 16:40:05;;;;;;;17.73;8.52;;;;;;;3.87;100.00;100998.25;4848341;29;20093;-84
2021/01/01 16:42:31;;;;;;;13.07;7.10;;;;;;;3.78;100.00;100985.28;4842812;29;20287;-83
2021/01/01 16:44:56;;;;;;;13.88;6.40;;;;;;;3.74;100.00;101003.66;4857080;29;20063;-81
2021/01/01 16:47:21;;;;;;;19.50;7.55;;;;;;;3.67;100.00;100991.56;4846458;29;20014;-87
2021/01/01 16:49:47;;;;;;;16.75;8.48;;;;;;;3.70;100.00;100997.59;4845527;29;20018;-86
2021/01/01 16:52:12;;;;;;;16.10;7.03;;;;;;;3.66;100.00;101003.75;4845606;29;20015;-86
2021/01/01 16:54:37;;;;;;;19.50;7.82;;;;;;;3.62;100.00;101002.06;4839593;29;20124;-87
2021/01/01 16:57:03;;;;;;;17.92;6.72;;;;;;;3.61;100.00;101009.06;4857651;29;20026;-88
2021/01/01 16:59:28;;;;;;;18.38;8.15;;;;;;;3.59;100.00;100996.88;4850418;29;20025;-88
2021/01/01 17:01:55;;;;;;;12.65;6.47;;;;;;;3.60;100.00;101012.53;4843863;29;20046;-87
2021/01/01 17:04:21;;;;;;;16.60;7.15;;;;;;;3.66;100.00;101015.94;4856041;29;20114;-86
2021/01/01 17:07:05;;;;;;;19.27;6.78;;;;;;;3.67;100.00;101010.72;4846839;29;20083;-88
2021/01/01 17:09:30;;;;;;;16.17;6.80;;;;;;;3.68;100.00;101001.13;4856112;29;20042;-88
2021/01/01 17:11:56;;;;;;;11.10;6.45;;;;;;;3.60;100.00;100996.84;4842235;29;20215;-88
2021/01/01 17:14:21;;;;;;;9.65;6.10;;;;;;;3.64;100.00;100989.84;4844907;29;20022;-87
2021/01/01 17:16:47;;;;;;;13.60;6.53;;;;;;;3.74;100.00;101009.75;4849861;29;20049;-87
2021/01/01 17:19:14;;;;;;;16.38;7.40;;;;;;;3.69;100.00;101006.31;4843684;29;20030;-88
2021/01/01 17:21:39;;;;;;;14.10;6.55;;;;;;;3.69;100.00;101006.31;4858730;29;20046;-88
2021/01/01 17:24:05;;;;;;;14.02;6.20;;;;;;;3.81;100.00;101010.50;4843048;29;20049;-87
2021/01/01 17:26:32;;;;;;;13.43;6.55;;;;;;;3.78;100.00;101000.97;4847939;29;20025;-89
2021/01/01 17:28:59;;;;;;;18.42;5.82;;;;;;;3.75;100.00;100992.31;4845205;29;20041;-86
2021/01/01 17:31:31;;;;;;;18.60;8.23;;;;;;;3.79;100.00;101015.78;4862048;29;20033;-88
2021/01/01 17:34:01;;;;;;;13.15;6.78;;;;;;;3.84;100.00;101019.19;4853654;29;20022;-87
2021/01/01 17:36:27;;;;;;;16.33;7.50;;;;;;;3.74;100.00;101014.97;4858332;29;20240;-87
2021/01/01 17:38:52;;;;;;;14.23;6.93;;;;;;;3.74;100.00;101020.19;4844913;29;20037;-87
2021/01/01 17:41:21;;;;;;;12.52;6.95;;;;;;;3.72;100.00;101021.13;4840966;29;20067;-89
2021/01/01 17:43:48;;;;;;;15.43;8.25;;;;;;;3.83;100.00;101029.69;4843223;29;20152;-87
2021/01/01 17:46:14;;;;;;;15.32;6.25;;;;;;;3.81;100.00;101016.59;4849823;29;20034;-87
2021/01/01 17:48:40;;;;;;;14.55;6.10;;;;;;;3.72;100.00;101024.59;4844509;29;20071;-87
2021/01/01 17:51:07;;;;;;;19.63;7.90;;;;;;;3.82;100.00;101030.56;4845597;29;20022;-88
2021/01/01 17:53:33;;;;;;;15.75;7.88;;;;;;;3.82;100.00;101018.34;4844986;29;20033;-89
2021/01/01 17:55:59;;;;;;;14.30;7.88;;;;;;;3.79;100.00;101026.22;4839150;29;20078;-88
2021/01/01 17:58:26;;;;;;;13.35;6.43;;;;;;;3.85;100.00;101028.75;4845536;29;20028;-86
2021/01/01 18:00:51;;;;;;;13.52;7.15;;;;;;;3.83;100.00;101034.91;4850834;29;20034;-89
2021/01/01 18:03:19;;;;;;;12.63;6.68;;;;;;;3.76;100.00;101038.47;4858275;29;20045;-88
2021/01/01 18:05:45;;;;;;;14.10;7.10;;;;;;;3.66;100.00;101018.56;4846696;29;20052;-89
2021/01/01 18:08:10;;;;;;;14.45;7.35;;;;;;;3.67;100.00;101038.63;4845304;29;20025;-87
2021/01/01 18:10:36;;;;;;;13.52;7.53;;;;;;;3.68;100.00;101042.94;4839234;29;20117;-88
2021/01/01 18:13:02;;;;;;;15.15;6.30;;;;;;;3.64;100.00;101036.88;4843244;29;20137;-87
2021/01/01 18:15:32;;;;;;;12.75;7.72;;;;;;;3.70;100.00;101051.63;4842537;29;20026;-88
2021/01/01 18:17:57;;;;;;;17.08;8.23;;;;;;;3.63;100.00;101041.25;4842519;29;20045;-87
2021/01/01 18:20:23;;;;;;;15.50;7.55;;;;;;;3.70;100.00;101046.41;4858605;29;20042;-86
2021/01/01 18:22:56;;;;;;;16.40;8.07;;;;;;;3.73;100.00;101055.06;4844572;29;20024;-87
2021/01/01 18:25:22;;;;;;;16.95;7.68;;;;;;;3.66;100.00;101050.78;4841358;29;20050;-86
2021/01/01 18:27:53;;;;;;;13.63;6.75;;;;;;;3.75;100.00;101055.03;4857147;29;20038;-87
2021/01/01 18:30:23;;;;;;;15.45;7.43;;;;;;;3.77;100.00;101043.69;4841095;29;20024;-88
2021/01/01 18:32:54;;;;;;;15.77;8.25;;;;;;;3.77;100.00;101066.38;4858232;29;20733;-88
2021/01/01 18:35:20;;;;;;;14.20;8.13;;;;;;;3.84;100.00;101065.38;4862385;29;20025;-87
2021/01/01 18:37:59;;;;;;;13.07;7.05;;;;;;;3.81;100.00;101065.41;4856949;29;20026;-86
2021/01/01 18:40:30;;;;;;;17.80;8.05;;;;;;;3.73;100.00;101054.22;4857960;29;20024;-86
2021/01/01 18:42:57;;;;;;;24.88;10.60;;;;;;;3.67;100.00;101051.69;4841727;29;20060;-85
2021/01/01 18:45:30;;;;;;;20.58;8.55;;;;;;;3.77;100.00;101062.00;4841819;29;21198;-86
2021/01/01 18:47:56;;;;;;;14.93;7.68;;;;;;;3.84;100.00;101078.47;4841356;29;20086;-86
2021/01/01 18:50:26;;;;;;;18.00;9.73;;;;;;;3.69;100.00;101074.28;4856491;29;20378;-87
2021/01/01 18:55:24;;;;;;;19.33;10.02;;;;;;;3.59;100.00;101062.22;4835869;29;20049;-86
2021/01/01 18:57:54;;;;;;;23.20;11.10;;;;;;;3.73;100.00;101075.13;4820074;29;20094;-86
2021/01/01 19:00:20;;;;;;;28.23;9.90;;;;;;;3.67;100.00;101085.66;4823084;29;20018;-86
2021/01/01 19:02:45;;;;;;;20.35;9.25;;;;;;;3.70;100.00;101078.63;4825490;29;20037;-87
2021/01/01 19:05:39;;;;;;;20.73;10.52;;;;;;;3.58;100.00;101077.03;4839306;29;20014;-86
2021/01/01 19:08:05;;;;;;;26.75;10.63;;;;;;;3.62;100.00;101089.19;4820614;29;20019;-86
2021/01/01 19:10:31;;;;;;;25.80;11.25;;;;;;;3.58;100.00;101073.56;4839689;29;20045;-87
2021/01/01 19:12:59;;;;;;;29.42;11.65;;;;;;;3.55;100.00;101070.97;4827251;29;20127;-86
2021/01/01 19:20:28;;;;;;;22.80;10.05;;;;;;;3.72;100.00;101086.47;4824564;29;20030;-87
2021/01/01 19:23:03;;;;;;;23.60;10.48;;;;;;;3.76;100.00;101094.22;4822956;29;20074;-87
2021/01/01 19:25:31;;;;;;;17.77;10.02;;;;;;;3.68;100.00;101088.25;4802308;29;20042;-87
2021/01/01 19:28:17;;;;;;;23.95;11.13;;;;;;;3.76;100.00;101104.69;4807236;29;20160;-88
2021/01/01 19:30:54;;;;;;;23.38;10.18;;;;;;;3.82;100.00;101102.03;4825386;29;20061;-85
2021/01/01 19:33:39;;;;;;;19.02;9.93;;;;;;;3.87;100.00;101107.19;4814065;29;20039;-87
2021/01/01 19:36:16;;;;;;;21.05;11.13;;;;;;;3.88;100.00;101103.69;4804344;29;20054;-84
2021/01/01 19:39:30;;;;;;;22.00;10.80;;;;;;;3.90;100.00;101112.38;4817123;29;20043;-85
2021/01/01 19:42:21;;;;;;;21.85;11.13;;;;;;;3.84;100.00;101118.56;4800904;29;20054;-85
2021/01/01 19:45:10;;;;;;;23.90;11.52;;;;;;;3.81;100.00;101110.72;4815457;29;20073;-85
2021/01/01 19:47:55;;;;;;;25.33;12.38;;;;;;;3.90;100.00;101115.84;4819986;29;20039;-87
2021/01/01 19:50:23;;;;;;;21.55;11.65;;;;;;;3.89;100.00;101115.88;4821977;29;20562;-84
2021/01/01 19:53:07;;;;;;;24.08;11.50;;;;;;;3.86;100.00;101118.50;4811814;29;20035;-87
2021/01/01 19:55:49;;;;;;;23.10;10.77;;;;;;;3.92;100.00;101115.84;4817866;29;20074;-87
2021/01/01 19:58:42;;;;;;;27.02;12.43;;;;;;;3.93;100.00;101121.94;4817779;29;20115;-87
2021/01/01 20:01:29;;;;;;;28.85;13.23;;;;;;;3.96;100.00;101120.13;4789403;29;20046;-86
2021/01/01 20:04:07;;;;;;;31.20;13.18;;;;;;;3.93;100.00;101114.09;4796132;29;20042;-88
2021/01/01 20:06:47;;;;;;;25.55;13.63;;;;;;;3.90;100.00;101113.22;4815359;29;20205;-88
2021/01/01 20:09:19;;;;;;;26.73;12.63;;;;;;;3.86;100.00;101116.75;4814810;29;20122;-85
2021/01/01 20:11:50;;;;;;;41.83;14.93;;;;;;;3.91;100.00;101124.56;4823357;29;20010;-85
2021/01/01 20:14:16;;;;;;;34.92;16.50;;;;;;;3.88;100.00;101137.69;4823706;29;20070;-86
2021/01/01 20:16:42;;;;;;;36.08;14.15;;;;;;;3.89;100.00;101142.03;4830101;29;20048;-87
2021/01/01 20:19:10;;;;;;;24.75;13.02;;;;;;;3.87;100.00;101144.66;4831970;29;20062;-85
2021/01/01 20:21:40;;;;;;;31.85;14.60;;;;;;;3.78;100.00;101141.28;4850259;29;20045;-88
2021/01/01 20:24:19;;;;;;;28.45;14.25;;;;;;;3.76;100.00;101140.44;4824853;29;20098;-86
2021/01/01 20:26:45;;;;;;;34.10;14.70;;;;;;;3.72;100.00;101147.47;4840964;29;20061;-88
2021/01/01 20:29:14;;;;;;;30.27;14.38;;;;;;;3.65;100.00;101145.78;4831478;29;20097;-86
2021/01/01 20:31:41;;;;;;;30.90;14.48;;;;;;;3.65;100.00;101145.78;4848990;29;20010;-88
2021/01/01 20:34:19;;;;;;;30.60;14.60;;;;;;;3.57;100.00;101150.25;4843664;29;20414;-87
2021/01/01 20:36:52;;;;;;;29.40;14.70;;;;;;;3.57;100.00;101150.25;4826818;29;20198;-86
2021/01/01 20:40:03;;;;;;;28.17;14.00;;;;;;;3.64;100.00;101151.91;4843644;29;20160;-90
2021/01/01 20:43:18;;;;;;;34.65;14.13;;;;;;;3.63;100.00;101161.50;4832872;29;20117;-87
2021/01/01 20:57:38;;;;;;;26.58;12.98;;;;;;;3.66;100.00;101164.94;4818067;29;20086;-89
2021/01/01 21:00:10;;;;;;;25.33;13.05;;;;;;;3.68;100.00;101165.81;4826246;29;20022;-87
2021/01/01 21:02:43;;;;;;;33.65;12.68;;;;;;;3.66;100.00;101168.41;4822860;29;20029;-87
2021/01/01 21:05:10;;;;;;;29.20;13.65;;;;;;;3.62;100.00;101167.63;4829515;29;20051;-86
2021/01/01 21:07:54;;;;;;;29.48;14.90;;;;;;;3.60;100.00;101174.59;4836388;29;20045;-87
2021/01/01 21:10:56;;;;;;;32.13;15.18;;;;;;;3.64;100.00;101170.19;4834543;29;20040;-87
2021/01/01 21:13:52;;;;;;;28.58;14.23;;;;;;;3.72;100.00;101168.38;4839912;29;20030;-85
2021/01/01 21:16:28;;;;;;;28.10;14.02;;;;;;;3.61;100.00;101157.16;4787870;29;20069;-86
2021/01/01 21:19:08;;;;;;;28.70;13.82;;;;;;;3.66;100.00;101168.41;4802676;29;20087;-86
2021/01/01 21:21:49;;;;;;;24.10;13.80;;;;;;;3.71;100.00;101171.00;4806304;29;20032;-87
2021/01/01 21:24:39;;;;;;;35.13;16.40;;;;;;;3.76;100.00;101169.19;4801790;29;20050;-85
2021/01/01 21:27:35;;;;;;;27.65;14.55;;;;;;;3.79;100.00;101166.56;4786427;29;20047;-89
2021/01/01 21:30:13;;;;;;;30.20;14.05;;;;;;;3.74;100.00;101170.97;4784764;29;20046;-89
2021/01/01 21:33:13;;;;;;;30.45;14.57;;;;;;;3.79;100.00;101171.78;4789884;29;20127;-88
2021/01/01 21:36:20;;;;;;;31.50;14.05;;;;;;;3.71;100.00;101169.25;4785892;29;20127;-88
2021/01/01 21:39:29;;;;;;;30.17;15.30;;;;;;;3.70;100.00;101169.25;4788348;29;20984;-86
2021/01/01 21:42:11;;;;;;;29.13;15.57;;;;;;;3.66;100.00;101159.72;4783572;29;20104;-88
2021/01/01 21:44:58;;;;;;;29.52;16.00;;;;;;;3.71;100.00;101177.06;4781156;29;20055;-86
2021/01/01 21:48:08;;;;;;;35.90;16.80;;;;;;;3.57;100.00;101172.03;4793397;29;20064;-86
2021/01/01 21:50:38;;;;;;;33.95;15.32;;;;;;;3.55;100.00;101172.91;4753340;30;20426;-90
2021/01/01 21:53:07;;;;;;;36.30;17.30;;;;;;;3.48;100.00;101181.69;4785597;29;20137;-89
2021/01/01 21:55:33;;;;;;;32.65;17.33;;;;;;;3.32;100.00;101175.75;4806617;29;20058;-90
2021/01/01 21:57:58;;;;;;;39.72;18.73;;;;;;;3.39;100.00;101182.66;4808322;29;20035;-86
2021/01/01 22:00:23;;;;;;;34.78;17.88;;;;;;;3.27;100.00;101178.41;4806146;29;20094;-87
2021/01/01 22:02:51;;;;;;;35.65;18.38;;;;;;;3.31;100.00;101192.28;4814545;29;20031;-89
2021/01/01 22:05:18;;;;;;;35.28;18.10;;;;;;;3.21;100.00;101186.28;4813518;29;20209;-85
2021/01/01 22:07:43;;;;;;;35.63;18.60;;;;;;;3.17;100.00;101191.56;4815627;29;20037;-86
2021/01/01 22:10:09;;;;;;;39.35;17.90;;;;;;;3.20;100.00;101188.91;4813168;29;20040;-88
2021/01/01 22:12:35;;;;;;;40.13;19.45;;;;;;;3.18;100.00;101198.53;4807532;29;20045;-87
2021/01/01 22:15:00;;;;;;;37.60;18.88;;;;;;;3.11;100.00;101195.06;4809446;29;20130;-89
2021/01/01 22:17:27;;;;;;;35.15;17.95;;;;;;;3.17;100.00;101188.97;4804629;29;20046;-86
2021/01/01 22:19:54;;;;;;;41.38;19.52;;;;;;;3.13;100.00;101202.91;4798989;29;20095;-88
2021/01/01 22:22:19;;;;;;;38.53;19.80;;;;;;;3.13;100.00;101195.94;4802514;29;20034;-89
2021/01/01 22:24:45;;;;;;;37.90;19.38;;;;;;;3.04;100.00;101199.47;4800509;29;20506;-88
2021/01/01 22:27:10;;;;;;;37.67;19.25;;;;;;;3.04;100.00;101207.31;4811531;29;20059;-86
2021/01/01 22:29:35;;;;;;;41.22;19.58;;;;;;;3.04;100.00;101206.47;4811933;29;20038;-84
2021/01/01 22:32:01;;;;;;;41.63;19.38;;;;;;;3.11;100.00;101203.81;4822620;29;20015;-87
2021/01/01 22:34:26;;;;;;;36.63;19.27;;;;;;;3.10;100.00;101202.03;4823943;29;20038;-86
2021/01/01 22:36:51;;;;;;;35.67;18.88;;;;;;;3.13;100.00;101198.56;4822690;29;20039;-85
2021/01/01 22:39:18;;;;;;;33.38;18.08;;;;;;;3.13;100.00;101200.31;4825216;29;20027;-84
2021/01/01 22:41:50;;;;;;;42.88;19.48;;;;;;;3.11;100.00;101198.56;4821128;29;20038;-86
2021/01/01 22:44:15;;;;;;;37.05;20.30;;;;;;;3.04;100.00;101198.63;4795832;29;20031;-89
2021/01/01 22:46:40;;;;;;;36.72;18.85;;;;;;;3.07;100.00;101204.69;4809873;29;20036;-88
2021/01/01 22:49:06;;;;;;;38.55;19.30;;;;;;;3.06;100.00;101202.06;4799941;29;20134;-86
2021/01/01 22:51:32;;;;;;;39.47;20.25;;;;;;;2.93;100.00;101198.72;4827452;29;20042;-89
2021/01/01 22:53:58;;;;;;;36.90;18.38;;;;;;;2.96;100.00;101201.31;4826665;29;20045;-90
2021/01/01 22:56:23;;;;;;;42.58;21.02;;;;;;;3.03;100.00;101207.34;4830110;29;20038;-88
2021/01/01 22:58:51;;;;;;;39.22;20.27;;;;;;;2.98;100.00;101202.16;4830957;29;20038;-88
2021/01/01 23:01:18;;;;;;;42.78;21.02;;;;;;;3.05;100.00;101206.44;4824382;29;20043;-90
2021/01/01 23:03:53;;;;;;;37.25;20.02;;;;;;;2.99;100.00;101203.00;4808098;29;20026;-89
2021/01/01 23:06:19;;;;;;;37.08;19.73;;;;;;;3.04;100.00;101204.72;4822838;29;20030;-89
2021/01/01 23:08:45;;;;;;;40.95;19.63;;;;;;;3.07;100.00;101203.84;4827450;29;20099;-86
2021/01/01 23:11:14;;;;;;;40.70;19.95;;;;;;;3.05;100.00;101197.72;4832874;29;20060;-88
2021/01/01 23:13:39;;;;;;;36.05;19.85;;;;;;;3.06;100.00;101204.69;4829358;29;20054;-88
2021/01/01 23:16:07;;;;;;;36.75;18.20;;;;;;;3.05;100.00;101210.78;4826952;29;20120;-88
2021/01/01 23:18:35;;;;;;;40.17;20.17;;;;;;;3.05;100.00;101210.78;4809408;29;20292;-88
2021/01/01 23:21:04;;;;;;;40.45;19.88;;;;;;;3.04;100.00;101224.75;4832777;29;20042;-86
2021/01/01 23:23:36;;;;;;;36.92;18.55;;;;;;;3.15;100.00;101222.91;4831056;29;20054;-88
2021/01/01 23:26:04;;;;;;;35.28;19.73;;;;;;;3.06;100.00;101217.75;4813583;29;20114;-89
2021/01/01 23:28:55;;;;;;;34.75;18.13;;;;;;;3.11;100.00;101219.47;4829127;29;20258;-88
2021/01/01 23:31:56;;;;;;;32.25;17.00;;;;;;;3.12;100.00;101222.94;4806813;29;20395;-88
2021/01/01 23:34:58;;;;;;;31.92;17.10;;;;;;;3.23;100.00;101233.31;4812041;29;20026;-87
2021/01/01 23:37:35;;;;;;;30.77;16.48;;;;;;;3.09;100.00;101216.00;4826427;29;20038;-86
2021/01/01 23:40:13;;;;;;;35.90;18.48;;;;;;;3.17;100.00;101229.00;4828684;29;20109;-89
2021/01/01 23:42:46;;;;;;;36.35;18.73;;;;;;;3.07;100.00;101211.66;4827895;29;20034;-88
2021/01/01 23:45:17;;;;;;;30.55;17.23;;;;;;;3.14;100.00;101221.19;4827467;29;20714;-86
2021/01/01 23:47:47;;;;;;;35.10;17.73;;;;;;;3.04;100.00;101216.91;4829619;29;20026;-87
2021/01/01 23:50:13;;;;;;;32.67;17.52;;;;;;;3.02;100.00;101210.84;4830044;29;20050;-87
2021/01/01 23:52:40;;;;;;;33.28;17.45;;;;;;;3.04;100.00;101224.75;4830046;29;20124;-88
2021/01/01 23:55:08;;;;;;;35.13;17.83;;;;;;;3.04;100.00;101220.38;4827916;29;20045;-88
2021/01/01 23:57:37;;;;;;;34.50;18.17;;;;;;;3.09;100.00;101226.44;4830703;29;20042;-88
